D/T METAR WX W/DIR W/SPE G/SPE TEMP DEWP
22/01/20 07:00 EIDW 220700Z 26005KT 230V290 0600 R16/1100N R28/1700U R10/1200N FG SCT001 BKN002 07/07 Q1039 NOSIG FG W (260°) 5.8mph 7°C 7°C
22/01/20 06:30 EIDW 220630Z 27006KT 0600 R16/1000N R28/1400N R10/1100N FG SCT001 BKN002 07/07 Q1039 NOSIG FG W (270°) 6.9mph 7°C 7°C
22/01/20 06:00 EIDW 220600Z 27006KT 0500 R16/0900N R28/1100N R10/1000U FG SCT001 BKN002 07/07 Q1039 NOSIG FG W (270°) 6.9mph 7°C 7°C
22/01/20 05:30 EIDW 220530Z 27006KT 0500 R16/0900N R28/0900N R10/0800N FG SCT001 BKN002 07/07 Q1039 NOSIG FG W (270°) 6.9mph 7°C 7°C
22/01/20 05:00 EIDW 220500Z 27007KT 0500 R16/1000N R28/2000D R10/0800V1000N FG SCT001 BKN002 08/07 Q1039 NOSIG FG W (270°) 8.1mph 8°C 7°C
22/01/20 04:30 EIDW 220430Z 25005KT 0600 R16/1100N R28/2000N R10/1000N FG SCT001 BKN002 07/07 Q1039 NOSIG FG WSW (250°) 5.8mph 7°C 7°C
22/01/20 04:00 EIDW 220400Z 26006KT 0700 R16/1000N R28/1300N R10/1600D FG SCT001 BKN002 07/07 Q1039 NOSIG FG W (260°) 6.9mph 7°C 7°C
22/01/20 03:30 EIDW 220330Z 26005KT 220V290 0800 R16/1100V1400N R28/2000N R10/1500U FG SCT001 BKN002 08/07 Q1040 NOSIG FG W (260°) 5.8mph 8°C 7°C
22/01/20 03:00 EIDW 220300Z 26007KT 0800 R16/1800D R28/2000N R10/1100N FG SCT001 BKN002 08/07 Q1040 NOSIG FG W (260°) 8.1mph 8°C 7°C
22/01/20 02:30 EIDW 220230Z 26006KT 1200 R16/P2000 R28/2000N R10/1700N BR FEW001 BKN002 08/07 Q1040 NOSIG BR W (260°) 6.9mph 8°C 7°C
22/01/20 02:00 EIDW 220200Z 26005KT 220V290 1200 R16/2000N R28/2000N R10/1800U BR FEW001 BKN002 08/07 Q1040 NOSIG BR W (260°) 5.8mph 8°C 7°C
22/01/20 01:30 EIDW 220130Z 26006KT 220V290 1500 BR FEW001 BKN002 08/07 Q1040 NOSIG BR W (260°) 6.9mph 8°C 7°C
22/01/20 01:00 EIDW 220100Z 27008KT 1500 BR SCT001 SCT003 BKN005 08/08 Q1040 NOSIG BR W (270°) 9.2mph 8°C 8°C
22/01/20 00:30 EIDW 220030Z 27007KT 3000 BR SCT001 SCT003 BKN005 08/08 Q1040 TEMPO BKN002 BR W (270°) 8.1mph 8°C 8°C
22/01/20 00:00 EIDW 220000Z 26006KT 3500 BR SCT001 SCT003 BKN005 08/08 Q1041 TEMPO BKN002 BR W (260°) 6.9mph 8°C 8°C
21/01/20 23:30 EIDW 212330Z 27007KT 4000 -BR SCT002 BKN003 BKN005 08/08 Q1041 TEMPO BKN002 -BR W (270°) 8.1mph 8°C 8°C
21/01/20 23:00 EIDW 212300Z 27007KT 4000 -BR FEW002 BKN003 BKN005 08/08 Q1041 TEMPO BKN002 -BR W (270°) 8.1mph 8°C 8°C
21/01/20 22:30 EIDW 212230Z 25006KT 210V280 4000 -BR FEW002 BKN003 BKN007 08/08 Q1041 TEMPO BKN002 -BR WSW (250°) 6.9mph 8°C 8°C
21/01/20 22:00 EIDW 212200Z 25005KT 210V270 7000 FEW002 BKN005 BKN007 08/07 Q1041 NOSIG WSW (250°) 5.8mph 8°C 7°C
21/01/20 21:30 EIDW 212130Z 26007KT 7000 FEW002 BKN004 BKN007 08/07 Q1041 TEMPO 4000 BKN002 W (260°) 8.1mph 8°C 7°C
21/01/20 21:00 EIDW 212100Z 27008KT 7000 FEW002 BKN004 BKN007 07/07 Q1040 TEMPO 4000 BKN002 W (270°) 9.2mph 7°C 7°C
21/01/20 20:30 EIDW 212030Z 26006KT 210V280 5000 -DZ FEW002 BKN004 BKN007 08/07 Q1041 TEMPO 4000 BKN002 -DZ W (260°) 6.9mph 8°C 7°C
21/01/20 20:00 EIDW 212000Z 25006KT 210V280 7000 FEW002 BKN005 BKN007 08/07 Q1041 NOSIG WSW (250°) 6.9mph 8°C 7°C
21/01/20 19:30 EIDW 211930Z 25006KT 230V290 8000 -DZ FEW002 BKN005 BKN010 08/07 Q1041 NOSIG -DZ WSW (250°) 6.9mph 8°C 7°C
21/01/20 19:00 EIDW 211900Z 26006KT 220V290 9999 FEW002 BKN004 BKN010 08/07 Q1041 NOSIG W (260°) 6.9mph 8°C 7°C
21/01/20 18:30 EIDW 211830Z 25007KT 220V280 9999 FEW003 BKN005 BKN008 07/07 Q1041 NOSIG WSW (250°) 8.1mph 7°C 7°C
21/01/20 18:00 EIDW 211800Z 24006KT 200V270 9999 FEW003 BKN005 BKN008 07/07 Q1040 NOSIG WSW (240°) 6.9mph 7°C 7°C
21/01/20 17:30 EIDW 211730Z 24005KT 190V290 9999 FEW003 BKN005 BKN008 08/07 Q1040 NOSIG WSW (240°) 5.8mph 8°C 7°C
21/01/20 17:00 EIDW 211700Z 25006KT 220V290 9999 FEW005 BKN006 BKN032 08/07 Q1041 NOSIG WSW (250°) 6.9mph 8°C 7°C
21/01/20 16:30 EIDW 211630Z 25006KT 200V280 9999 FEW006 BKN009 BKN032 08/07 Q1040 NOSIG WSW (250°) 6.9mph 8°C 7°C
21/01/20 16:00 EIDW 211600Z 24005KT 180V270 9999 FEW004 BKN006 BKN032 08/07 Q1040 NOSIG WSW (240°) 5.8mph 8°C 7°C
21/01/20 15:30 EIDW 211530Z 26007KT 230V290 9999 FEW004 BKN006 BKN032 08/07 Q1041 NOSIG W (260°) 8.1mph 8°C 7°C
21/01/20 15:00 EIDW 211500Z 26008KT 9999 FEW004 BKN006 BKN032 08/07 Q1041 NOSIG W (260°) 9.2mph 8°C 7°C
21/01/20 14:30 EIDW 211430Z 26007KT 210V300 9999 FEW003 BKN005 BKN032 08/07 Q1041 NOSIG W (260°) 8.1mph 8°C 7°C
21/01/20 14:00 EIDW 211400Z 26008KT 9999 FEW003 BKN005 BKN032 08/07 Q1041 NOSIG W (260°) 9.2mph 8°C 7°C
21/01/20 13:30 EIDW 211330Z 27010KT 9999 FEW003 SCT005 BKN032 08/07 Q1041 NOSIG W (270°) 11.5mph 8°C 7°C
21/01/20 13:00 EIDW 211300Z 26008KT 200V290 9999 FEW003 SCT005 BKN032 08/07 Q1042 NOSIG W (260°) 9.2mph 8°C 7°C
21/01/20 12:30 EIDW 211230Z 26010KT 9999 FEW004 SCT007 BKN032 07/07 Q1042 NOSIG W (260°) 11.5mph 7°C 7°C
21/01/20 12:00 EIDW 211200Z 25006KT 210V280 8000 SCT003 BKN010 BKN032 07/07 Q1042 NOSIG WSW (250°) 6.9mph 7°C 7°C
21/01/20 11:30 EIDW 211130Z 25006KT 200V280 8000 FEW003 BKN005 BKN009 07/06 Q1042 NOSIG WSW (250°) 6.9mph 7°C 6°C
21/01/20 11:00 EIDW 211100Z 25006KT 230V290 8000 SCT002 BKN008 BKN010 07/07 Q1042 NOSIG WSW (250°) 6.9mph 7°C 7°C
21/01/20 10:30 EIDW 211030Z 25006KT 230V300 8000 -DZ SCT002 BKN005 BKN006 07/06 Q1042 NOSIG -DZ WSW (250°) 6.9mph 7°C 6°C
21/01/20 10:00 EIDW 211000Z 25006KT 220V280 6000 -DZ SCT002 BKN005 OVC007 06/06 Q1042 NOSIG -DZ WSW (250°) 6.9mph 6°C 6°C
21/01/20 09:30 EIDW 210930Z 25006KT 220V300 7000 BKN002 BKN004 BKN009 06/06 Q1042 NOSIG WSW (250°) 6.9mph 6°C 6°C
21/01/20 09:00 EIDW 210900Z 25007KT 220V280 8000 SCT002 BKN004 OVC024 06/06 Q1042 NOSIG WSW (250°) 8.1mph 6°C 6°C
21/01/20 08:30 EIDW 210830Z 25005KT 210V300 7000 -DZ FEW002 SCT004 BKN007 06/05 Q1042 NOSIG -DZ WSW (250°) 5.8mph 6°C 5°C
21/01/20 08:00 EIDW 210800Z 25006KT 210V280 8000 -DZ SCT004 SCT012 BKN018 06/05 Q1042 NOSIG -DZ WSW (250°) 6.9mph 6°C 5°C
21/01/20 07:30 EIDW 210730Z 23005KT 190V280 9000 -DZ FEW005 SCT015 BKN026 06/05 Q1042 NOSIG -DZ SW (230°) 5.8mph 6°C 5°C